West Olive, MI (49460)

7:54 PM EST on December 05, 2016 (GMT -0500)
Sheldon Dunes | | Change Station

Elev 646 ft 42.94 °N, 86.21 °W | Updated 32 seconds ago

Overcast
Overcast
33.3 °F
Feels Like 33 °F
N
0.0
Wind Variable Wind from East
Gusts 0.0 mph

Today
High -- | Low -- °F
--% Chance of Precip.
Yesterday
High -- | Low -- °F
Precip. -- in
Pressure 30.05 in
Visibility 10.0 miles
Clouds Overcast 1200 ft
Windchill 33 °F
Dew Point 25 °F
Humidity 70%
Rainfall 0.14 in
Snow Depth Not available.
8:00 AM 5:10 PM
Waxing Crescent, 36% visible
METAR KBIV 052353Z AUTO 14005KT 10SM OVC012 01/M02 A3003 RMK AO2 SLP175 T00111017 10050 20011 58002
Pressure 30.05 in
Visibility 10.0 miles
Clouds Overcast 1200 ft
Windchill 33 °F
Dew Point 25 °F
Humidity 70%
Rainfall 0.14 in
Snow Depth Not available.
8:00 AM 5:10 PM
Waxing Crescent, 36% visible
METAR KBIV 052353Z AUTO 14005KT 10SM OVC012 01/M02 A3003 RMK AO2 SLP175 T00111017 10050 20011 58002

10-Day Weather Forecast

Almanac

Astronomy

Dec. 05, 2016 Rise Set
Actual Time
Civil Twilight
Nautical Twilight
Astronomical Twilight
Moon
Length of Visible Light
Length of Day
Tomorrow will be .
, % of the Moon is Illuminated

Today's Extremes

State Highs State Lows

Community

WunderPhotos

Upload Photos

1,955,886 photos uploaded!

WunderBlog® & News

Nearby

Air Quality

  Air Quality AQ Index Pollutant
Not available.

Snow Depth

Station Depth Elevation

Earthquake Activity

City Distance Mag. Time & Date
Minimum magnitude displayed is 2.5.

Coastal Water Temperatures

Place Temperature

Stations

Nearby Weather Stations

Station Location Temp. Windchill Dew Point Humidity Wind Precip. Elev Updated Type
                   

Watches & Warnings

There are currently no watches in effect.